x

Halibut Bank (46146) Wave Buoy

8:00 - Thu 28th Jul 2016 All times are PDT. -7 hours from GMT.

  • Sig Wave height 1.6ft
  • Peak Period 3s
  • Wind
    20mph, 22mph gusts
  • Sea Temp 65°f
  • Luft Temp 69°f
  • Sea Pressure 1015.3mb
  • Halibut Bank
  • Halibut Bank

More Historic Weather Station data

Upgrade to MSW Pro to gain access to the past 30 days of data for over 8000 Wavebouys and Weather Stations around the globe.

Join Pro

Comparision Forecast

View Surf forecast
   
Do 07/28 8:00 1.6ft 3s 20 22 mph 1015.3mb 65f 69f
7:00 1.6ft 3s 20 22 mph 1015.9mb 65f 70f
6:00 1.6ft 3s 18 22 mph 1016.4mb 66f 70f
5:00 2ft 4s 18 20 mph 1017mb 65f 68f
4:00 2ft 4s 18 20 mph 1017.8mb 65f 67f
3:00 2ft 4s 16 18 mph 1018.3mb 66f 67f
2:00 2ft 4s 16 18 mph 1019mb 65f 66f
1:00 2ft 4s 13 18 mph 1019.6mb 65f 65f
12:00 2.5ft 4s 13 16 mph 1020.2mb 65f 64f
11:00 2.5ft 4s 18 20 mph 1020.3mb 63f 64f
10:00 2.5ft 4s 13 16 mph 1020.7mb 64f 63f
9:00 2.5ft 4s 16 18 mph 1020.8mb 64f 63f
8:00 2.5ft 4s 16 18 mph 1020.8mb 64f 64f
7:00 2.5ft 4s 13 18 mph 1020.6mb 64f 63f
6:00 2.5ft 4s 18 22 mph 1020.2mb 65f 64f
5:00 2.5ft 4s 18 22 mph 1019.7mb 65f 65f
4:00 2.5ft 4s 18 25 mph 1019.4mb 65f 65f
3:00 2.5ft 4s 18 20 mph 1019.1mb 65f 66f
2:00 2.5ft 4s 16 18 mph 1018.7mb 65f 67f
1:00 2.5ft 4s 13 16 mph 1018.7mb 65f 68f
12:00 1.6ft 3s 16 18 mph 1018.3mb 66f 69f
Mi 07/27 11:00 2ft 4s 18 20 mph 1018.1mb 67f 70f
10:00 2ft 3s 18 22 mph 1017.6mb 68f 72f
9:00 2ft 3s 20 22 mph 1017.1mb 69f 72f
8:00 2ft 3s 20 22 mph 1016.9mb 69f 72f
7:00 2ft 4s 18 22 mph 1017.1mb 70f 73f
6:00 2.5ft 3s 18 22 mph 1017.6mb 70f 72f
5:00 2ft 4s 20 22 mph 1017.9mb 70f 71f
4:00 2ft 4s 16 20 mph 1018.4mb 71f 70f
3:00 2ft 4s 18 20 mph 1018.8mb 71f 70f
2:00 2ft 4s 16 20 mph 1019.6mb 70f 69f
1:00 2.5ft 4s 16 18 mph 1020.2mb 69f 68f
12:00 2.5ft 4s 16 20 mph 1020.3mb 69f 66f
11:00 2.5ft 4s 20 22 mph 1020.5mb 69f 65f
10:00 2.5ft 4s 18 20 mph 1020.7mb 68f 64f
9:00 2.5ft 4s 18 20 mph 1020.8mb 68f 65f
8:00 2.5ft 4s 18 22 mph 1020.6mb 68f 65f
7:00 2.5ft 4s 18 22 mph 1020.5mb 67f 65f
6:00 3ft 4s 18 22 mph 1020.1mb 68f 65f
5:00 2.5ft 4s 18 20 mph 1019.7mb 68f 65f
4:00 2.5ft 4s 18 20 mph 1019.4mb 68f 66f
3:00 1.3ft 4s 13 18 mph 1019.2mb 70f 68f
2:00 1ft 3s 7 9 mph 1018.8mb 70f 69f
1:00 0.7ft 3s 9 11 mph 1018.8mb 70f 69f
12:00 0.7ft 3s 9
mph
1019mb 70f 70f
Di 07/26 11:00 0.7ft 3s 9 11 mph 1018.8mb 71f 71f
10:00 1ft 3s 4 7 mph 1018.6mb 72f 71f
9:00 1ft 3s 2
mph
1018.2mb 71f 72f
8:00 0.7ft 3s  -  mph 1017.8mb 72f 75f
7:00 0.7ft 6s 7 9 mph 1017.9mb 72f 72f
6:00 0.7ft 3s 4
mph
1018.2mb 72f 72f
5:00 0.7ft 6s  -  2 mph 1018.7mb 72f 71f
4:00 0.7ft 4s  -  2 mph 1019.1mb 72f 70f
3:00 0.7ft 3s 2 4 mph 1019.8mb 73f 68f
2:00 1.3ft 3s  -  2 mph 1020.1mb 72f 68f
1:00 1.3ft 4s 4 7 mph 1020.2mb 71f 66f
12:00 1.3ft 4s 7
mph
1020.4mb 71f 65f
11:00 1.6ft 4s 7 9 mph 1020.6mb 69f 65f
10:00 1.6ft 3s 11 13 mph 1020.5mb 69f 64f
9:00 1.3ft 3s 11
mph
1020.3mb 70f 64f
8:00 1.3ft 3s 13
mph
1019.9mb 70f 64f
7:00 1.3ft 3s 13 16 mph 1019.3mb 70f 65f
6:00 1.6ft 3s 16 18 mph 1018.5mb 71f 65f
5:00 1.6ft 3s 13 18 mph 1018.1mb 71f 68f
4:00 1.3ft 3s 7 11 mph 1018mb 72f 70f
3:00 0.3ft 2s 11 13 mph 1017.7mb 72f 68f
2:00 0.3ft 5s 9
mph
1017.5mb 73f 69f
1:00 0.3ft 4s 7 9 mph 1017.1mb 73f 71f
12:00 0.3ft 4s 7
mph
1016.5mb 72f 72f
Mo 07/25 11:00 0.3ft 2s 4
mph
1016.4mb 72f 72f
10:00 0.7ft 6s 4
mph
1016.2mb 75f 73f
9:00 0.3ft 6s 4 7 mph 1016mb 75f 72f
8:00 0.3ft 2s 2
mph
1015.9mb 76f 73f
7:00 0.7ft 7s 2
mph
1015.9mb 75f 74f
6:00 0.7ft 3s  -  2 mph 1016.2mb 76f 74f
5:00 0.7ft 3s  -  2 mph 1016.9mb 75f 72f
4:00 0.7ft 3s 2 4 mph 1017.2mb 75f 71f
3:00 0.7ft 3s  -  2 mph 1017.6mb 72f 71f
2:00 1ft 3s  -  2 mph 1017.9mb 72f 70f
1:00 1ft 3s 2
mph
1017.9mb 71f 69f
12:00 1ft 4s 4 7 mph 1018.2mb 71f 68f
11:00 1ft 3s  -  2 mph 1018.4mb 70f 69f
10:00 1ft 3s 7 9 mph 1018.2mb 69f 67f
9:00 1ft 3s 4 7 mph 1018.2mb 69f 68f
8:00 1ft 3s 7
mph
1017.8mb 69f 68f
7:00 1ft 3s 4
mph
1017.4mb 69f 68f
6:00 1ft 3s 4
mph
1017.2mb 69f 68f
5:00 1ft 3s 4 9 mph 1016.8mb 69f 69f